sensor_id;sensor_type;location;lat;lon;timestamp;pressure;altitude;pressure_sealevel;temperature;humidity
17383;BME280;8809;51.892;8.384;2022-11-20T00:01:43;100274.28;;;-2.43;100.00
17383;BME280;8809;51.892;8.384;2022-11-20T00:04:16;100271.72;;;-2.43;100.00
17383;BME280;8809;51.892;8.384;2022-11-20T00:06:46;100278.34;;;-2.45;100.00
17383;BME280;8809;51.892;8.384;2022-11-20T00:09:16;100273.88;;;-2.47;100.00
17383;BME280;8809;51.892;8.384;2022-11-20T00:11:45;100270.28;;;-2.49;100.00
17383;BME280;8809;51.892;8.384;2022-11-20T00:14:12;100266.72;;;-2.51;100.00
17383;BME280;8809;51.892;8.384;2022-11-20T00:16:39;100265.53;;;-2.55;100.00
17383;BME280;8809;51.892;8.384;2022-11-20T00:19:06;100264.66;;;-2.55;100.00
17383;BME280;8809;51.892;8.384;2022-11-20T00:21:33;100263.75;;;-2.56;100.00
17383;BME280;8809;51.892;8.384;2022-11-20T00:24:01;100263.59;;;-2.57;100.00
17383;BME280;8809;51.892;8.384;2022-11-20T00:26:29;100267.56;;;-2.61;100.00
17383;BME280;8809;51.892;8.384;2022-11-20T00:28:57;100251.97;;;-2.64;100.00
17383;BME280;8809;51.892;8.384;2022-11-20T00:31:24;100255.44;;;-2.64;100.00
17383;BME280;8809;51.892;8.384;2022-11-20T00:33:52;100246.72;;;-2.66;100.00
17383;BME280;8809;51.892;8.384;2022-11-20T00:36:20;100252.34;;;-2.70;100.00
17383;BME280;8809;51.892;8.384;2022-11-20T00:39:05;100251.56;;;-2.69;100.00
17383;BME280;8809;51.892;8.384;2022-11-20T00:42:07;100254.91;;;-2.70;100.00
17383;BME280;8809;51.892;8.384;2022-11-20T00:44:51;100253.13;;;-2.71;100.00
17383;BME280;8809;51.892;8.384;2022-11-20T00:47:30;100254.00;;;-2.70;100.00
17383;BME280;8809;51.892;8.384;2022-11-20T00:50:19;100251.31;;;-2.72;100.00
17383;BME280;8809;51.892;8.384;2022-11-20T00:52:53;100254.63;;;-2.73;100.00
17383;BME280;8809;51.892;8.384;2022-11-20T00:55:28;100257.94;;;-2.74;100.00
17383;BME280;8809;51.892;8.384;2022-11-20T00:57:58;100257.81;;;-2.75;100.00
17383;BME280;8809;51.892;8.384;2022-11-20T01:00:25;100254.34;;;-2.76;100.00
17383;BME280;8809;51.892;8.384;2022-11-20T01:02:52;100245.66;;;-2.78;100.00
17383;BME280;8809;51.892;8.384;2022-11-20T01:05:22;100254.97;;;-2.78;100.00
17383;BME280;8809;51.892;8.384;2022-11-20T01:07:48;100251.41;;;-2.80;100.00
17383;BME280;8809;51.892;8.384;2022-11-20T01:10:15;100261.47;;;-2.82;100.00
17383;BME280;8809;51.892;8.384;2022-11-20T01:12:44;100262.25;;;-2.83;100.00
17383;BME280;8809;51.892;8.384;2022-11-20T01:15:33;100261.97;;;-2.86;100.00
17383;BME280;8809;51.892;8.384;2022-11-20T01:18:02;100266.03;;;-2.88;100.00
17383;BME280;8809;51.892;8.384;2022-11-20T01:20:29;100261.72;;;-2.89;100.00
17383;BME280;8809;51.892;8.384;2022-11-20T01:22:56;100261.56;;;-2.90;100.00
17383;BME280;8809;51.892;8.384;2022-11-20T01:25:23;100259.63;;;-2.93;100.00
17383;BME280;8809;51.892;8.384;2022-11-20T01:27:51;100257.84;;;-2.94;100.00
17383;BME280;8809;51.892;8.384;2022-11-20T01:30:18;100261.91;;;-2.96;100.00
17383;BME280;8809;51.892;8.384;2022-11-20T01:32:45;100263.56;;;-2.96;100.00
17383;BME280;8809;51.892;8.384;2022-11-20T01:35:12;100264.31;;;-2.97;100.00
17383;BME280;8809;51.892;8.384;2022-11-20T01:37:39;100269.31;;;-2.99;100.00
17383;BME280;8809;51.892;8.384;2022-11-20T01:40:07;100268.28;;;-3.01;100.00
17383;BME280;8809;51.892;8.384;2022-11-20T01:42:37;100265.72;;;-3.01;100.00
17383;BME280;8809;51.892;8.384;2022-11-20T01:45:50;100259.56;;;-3.03;100.00
17383;BME280;8809;51.892;8.384;2022-11-20T01:48:21;100256.00;;;-3.05;100.00
17383;BME280;8809;51.892;8.384;2022-11-20T01:50:50;100253.19;;;-3.08;100.00
17383;BME280;8809;51.892;8.384;2022-11-20T01:53:21;100249.75;;;-3.09;100.00
17383;BME280;8809;51.892;8.384;2022-11-20T01:55:52;100252.91;;;-3.11;100.00
17383;BME280;8809;51.892;8.384;2022-11-20T01:58:22;100255.19;;;-3.14;100.00
17383;BME280;8809;51.892;8.384;2022-11-20T02:00:54;100249.81;;;-3.17;100.00
17383;BME280;8809;51.892;8.384;2022-11-20T02:03:21;100247.13;;;-3.19;100.00
17383;BME280;8809;51.892;8.384;2022-11-20T02:05:51;100246.69;;;-3.23;100.00
17383;BME280;8809;51.892;8.384;2022-11-20T02:08:23;100244.91;;;-3.24;100.00
17383;BME280;8809;51.892;8.384;2022-11-20T02:10:50;100248.22;;;-3.25;100.00
17383;BME280;8809;51.892;8.384;2022-11-20T02:13:17;100243.00;;;-3.27;100.00
17383;BME280;8809;51.892;8.384;2022-11-20T02:16:04;100241.31;;;-3.26;100.00
17383;BME280;8809;51.892;8.384;2022-11-20T02:18:33;100246.41;;;-3.26;100.00
17383;BME280;8809;51.892;8.384;2022-11-20T02:21:03;100241.22;;;-3.28;100.00
17383;BME280;8809;51.892;8.384;2022-11-20T02:23:36;100232.66;;;-3.28;100.00
17383;BME280;8809;51.892;8.384;2022-11-20T02:26:09;100231.75;;;-3.29;100.00
17383;BME280;8809;51.892;8.384;2022-11-20T02:28:38;100219.75;;;-3.30;100.00
17383;BME280;8809;51.892;8.384;2022-11-20T02:31:06;100221.41;;;-3.30;100.00
17383;BME280;8809;51.892;8.384;2022-11-20T02:33:33;100218.88;;;-3.30;100.00
17383;BME280;8809;51.892;8.384;2022-11-20T02:36:00;100215.28;;;-3.32;100.00
17383;BME280;8809;51.892;8.384;2022-11-20T02:38:27;100212.59;;;-3.34;100.00
17383;BME280;8809;51.892;8.384;2022-11-20T02:40:54;100215.13;;;-3.34;100.00
17383;BME280;8809;51.892;8.384;2022-11-20T02:43:23;100220.88;;;-3.37;100.00
17383;BME280;8809;51.892;8.384;2022-11-20T02:45:50;100207.09;;;-3.39;100.00
17383;BME280;8809;51.892;8.384;2022-11-20T02:48:17;100201.84;;;-3.40;100.00
17383;BME280;8809;51.892;8.384;2022-11-20T02:50:52;100191.38;;;-3.43;100.00
17383;BME280;8809;51.892;8.384;2022-11-20T02:53:32;100191.38;;;-3.43;100.00
17383;BME280;8809;51.892;8.384;2022-11-20T02:56:10;100190.22;;;-3.47;100.00
17383;BME280;8809;51.892;8.384;2022-11-20T02:59:05;100182.44;;;-3.48;100.00
17383;BME280;8809;51.892;8.384;2022-11-20T03:01:32;100184.84;;;-3.50;100.00
17383;BME280;8809;51.892;8.384;2022-11-20T03:03:59;100188.16;;;-3.51;100.00
17383;BME280;8809;51.892;8.384;2022-11-20T03:06:28;100182.75;;;-3.54;100.00
17383;BME280;8809;51.892;8.384;2022-11-20T03:08:56;100186.06;;;-3.55;100.00
17383;BME280;8809;51.892;8.384;2022-11-20T03:11:23;100193.59;;;-3.56;100.00
17383;BME280;8809;51.892;8.384;2022-11-20T03:13:50;100201.09;;;-3.58;100.00
17383;BME280;8809;51.892;8.384;2022-11-20T03:16:20;100200.06;;;-3.60;100.00
17383;BME280;8809;51.892;8.384;2022-11-20T03:18:48;100200.81;;;-3.61;100.00
17383;BME280;8809;51.892;8.384;2022-11-20T03:21:20;100197.22;;;-3.63;100.00
17383;BME280;8809;51.892;8.384;2022-11-20T03:23:57;100199.63;;;-3.64;100.00
17383;BME280;8809;51.892;8.384;2022-11-20T03:26:33;100198.75;;;-3.65;100.00
17383;BME280;8809;51.892;8.384;2022-11-20T03:29:07;100189.34;;;-3.66;100.00
17383;BME280;8809;51.892;8.384;2022-11-20T03:31:37;100186.50;;;-3.69;100.00
17383;BME280;8809;51.892;8.384;2022-11-20T03:34:07;100185.59;;;-3.69;100.00
17383;BME280;8809;51.892;8.384;2022-11-20T03:36:34;100177.66;;;-3.72;100.00
17383;BME280;8809;51.892;8.384;2022-11-20T03:39:01;100181.72;;;-3.75;100.00
17383;BME280;8809;51.892;8.384;2022-11-20T03:41:30;100179.06;;;-3.76;100.00
17383;BME280;8809;51.892;8.384;2022-11-20T03:43:59;100190.78;;;-3.78;100.00
17383;BME280;8809;51.892;8.384;2022-11-20T03:46:28;100189.72;;;-3.80;100.00
17383;BME280;8809;51.892;8.384;2022-11-20T03:48:57;100185.38;;;-3.81;100.00
17383;BME280;8809;51.892;8.384;2022-11-20T03:51:26;100192.00;;;-3.83;100.00
17383;BME280;8809;51.892;8.384;2022-11-20T03:53:55;100185.88;;;-3.85;100.00
17383;BME280;8809;51.892;8.384;2022-11-20T03:56:32;100183.19;;;-3.87;100.00
17383;BME280;8809;51.892;8.384;2022-11-20T03:59:14;100183.19;;;-3.87;100.00
17383;BME280;8809;51.892;8.384;2022-11-20T04:01:41;100185.59;;;-3.88;100.00
17383;BME280;8809;51.892;8.384;2022-11-20T04:04:09;100183.66;;;-3.91;100.00
17383;BME280;8809;51.892;8.384;2022-11-20T04:06:37;100181.59;;;-3.95;100.00
17383;BME280;8809;51.892;8.384;2022-11-20T04:09:05;100178.91;;;-3.96;100.00
17383;BME280;8809;51.892;8.384;2022-11-20T04:11:33;100177.13;;;-3.97;100.00
17383;BME280;8809;51.892;8.384;2022-11-20T04:14:03;100180.41;;;-3.98;100.00
17383;BME280;8809;51.892;8.384;2022-11-20T04:16:36;100185.50;;;-3.98;100.00
17383;BME280;8809;51.892;8.384;2022-11-20T04:19:17;100184.19;;;-4.03;100.00
17383;BME280;8809;51.892;8.384;2022-11-20T04:22:04;100181.63;;;-4.03;100.00
17383;BME280;8809;51.892;8.384;2022-11-20T04:24:35;100181.53;;;-4.05;100.00
17383;BME280;8809;51.892;8.384;2022-11-20T04:27:01;100181.38;;;-4.06;100.00
17383;BME280;8809;51.892;8.384;2022-11-20T04:29:28;100184.69;;;-4.07;100.00
17383;BME280;8809;51.892;8.384;2022-11-20T04:32:01;100187.22;;;-4.07;100.00
17383;BME280;8809;51.892;8.384;2022-11-20T04:34:30;100185.28;;;-4.10;100.00
17383;BME280;8809;51.892;8.384;2022-11-20T04:36:57;100178.41;;;-4.11;100.00
17383;BME280;8809;51.892;8.384;2022-11-20T04:39:24;100179.91;;;-4.13;100.00
17383;BME280;8809;51.892;8.384;2022-11-20T04:41:51;100187.53;;;-4.13;100.00
17383;BME280;8809;51.892;8.384;2022-11-20T04:44:39;100180.69;;;-4.14;100.00
17383;BME280;8809;51.892;8.384;2022-11-20T04:47:06;100177.84;;;-4.17;100.00
17383;BME280;8809;51.892;8.384;2022-11-20T04:49:34;100179.50;;;-4.18;100.00
17383;BME280;8809;51.892;8.384;2022-11-20T04:52:01;100175.16;;;-4.19;100.00
17383;BME280;8809;51.892;8.384;2022-11-20T04:54:33;100176.06;;;-4.18;100.00
17383;BME280;8809;51.892;8.384;2022-11-20T04:57:25;100161.38;;;-4.21;100.00
17383;BME280;8809;51.892;8.384;2022-11-20T04:59:59;100168.13;;;-4.21;100.00
17383;BME280;8809;51.892;8.384;2022-11-20T05:02:30;100170.53;;;-4.23;100.00
17383;BME280;8809;51.892;8.384;2022-11-20T05:04:59;100170.41;;;-4.24;100.00
17383;BME280;8809;51.892;8.384;2022-11-20T05:07:26;100173.72;;;-4.25;100.00
17383;BME280;8809;51.892;8.384;2022-11-20T05:09:53;100178.66;;;-4.27;100.00
17383;BME280;8809;51.892;8.384;2022-11-20T05:12:20;100189.59;;;-4.28;100.00
17383;BME280;8809;51.892;8.384;2022-11-20T05:14:47;100186.91;;;-4.29;100.00
17383;BME280;8809;51.892;8.384;2022-11-20T05:17:13;100186.00;;;-4.30;100.00
17383;BME280;8809;51.892;8.384;2022-11-20T05:19:41;100186.59;;;-4.32;100.00
17383;BME280;8809;51.892;8.384;2022-11-20T05:22:29;100186.59;;;-4.32;100.00
17383;BME280;8809;51.892;8.384;2022-11-20T05:25:13;100181.25;;;-4.35;100.00
17383;BME280;8809;51.892;8.384;2022-11-20T05:27:42;100175.25;;;-4.36;100.00
17383;BME280;8809;51.892;8.384;2022-11-20T05:30:16;100176.00;;;-4.37;100.00
17383;BME280;8809;51.892;8.384;2022-11-20T05:32:44;100169.88;;;-4.39;100.00
17383;BME280;8809;51.892;8.384;2022-11-20T05:35:11;100176.63;;;-4.39;100.00
17383;BME280;8809;51.892;8.384;2022-11-20T05:37:39;100175.56;;;-4.41;100.00
17383;BME280;8809;51.892;8.384;2022-11-20T05:40:07;100167.94;;;-4.41;100.00
17383;BME280;8809;51.892;8.384;2022-11-20T05:42:37;100169.59;;;-4.42;100.00
17383;BME280;8809;51.892;8.384;2022-11-20T05:45:04;100169.31;;;-4.45;100.00
17383;BME280;8809;51.892;8.384;2022-11-20T05:47:33;100174.41;;;-4.45;100.00
17383;BME280;8809;51.892;8.384;2022-11-20T05:50:06;100163.94;;;-4.48;100.00
17383;BME280;8809;51.892;8.384;2022-11-20T05:52:45;100166.34;;;-4.50;100.00
17383;BME280;8809;51.892;8.384;2022-11-20T05:55:29;100173.97;;;-4.50;100.00
17383;BME280;8809;51.892;8.384;2022-11-20T05:58:01;100167.09;;;-4.51;100.00
17383;BME280;8809;51.892;8.384;2022-11-20T06:00:32;100166.97;;;-4.52;100.00
17383;BME280;8809;51.892;8.384;2022-11-20T06:03:02;100172.06;;;-4.52;100.00
17383;BME280;8809;51.892;8.384;2022-11-20T06:05:29;100172.06;;;-4.52;100.00
17383;BME280;8809;51.892;8.384;2022-11-20T06:08:00;100167.72;;;-4.53;100.00
17383;BME280;8809;51.892;8.384;2022-11-20T06:10:27;100166.97;;;-4.52;100.00
17383;BME280;8809;51.892;8.384;2022-11-20T06:12:57;100162.88;;;-4.50;100.00
17383;BME280;8809;51.892;8.384;2022-11-20T06:15:24;100160.34;;;-4.50;100.00
17383;BME280;8809;51.892;8.384;2022-11-20T06:17:52;100157.94;;;-4.49;100.00
17383;BME280;8809;51.892;8.384;2022-11-20T06:20:19;100163.19;;;-4.47;100.00
17383;BME280;8809;51.892;8.384;2022-11-20T06:22:46;100165.72;;;-4.47;100.00
17383;BME280;8809;51.892;8.384;2022-11-20T06:25:15;100164.97;;;-4.46;100.00
17383;BME280;8809;51.892;8.384;2022-11-20T06:27:42;100162.72;;;-4.43;100.00
17383;BME280;8809;51.892;8.384;2022-11-20T06:30:11;100167.03;;;-4.42;100.00
17383;BME280;8809;51.892;8.384;2022-11-20T06:32:38;100163.00;;;-4.40;100.00
17383;BME280;8809;51.892;8.384;2022-11-20T06:35:15;100174.38;;;-4.36;100.00
17383;BME280;8809;51.892;8.384;2022-11-20T06:37:50;100166.44;;;-4.39;100.00
17383;BME280;8809;51.892;8.384;2022-11-20T06:40:19;100180.97;;;-4.38;100.00
17383;BME280;8809;51.892;8.384;2022-11-20T06:42:46;100170.78;;;-4.38;100.00
17383;BME280;8809;51.892;8.384;2022-11-20T06:45:13;100164.19;;;-4.36;100.00
17383;BME280;8809;51.892;8.384;2022-11-20T06:47:40;100164.47;;;-4.33;100.00
17383;BME280;8809;51.892;8.384;2022-11-20T06:50:07;100161.44;;;-4.29;100.00
17383;BME280;8809;51.892;8.384;2022-11-20T06:52:36;100161.56;;;-4.28;100.00
17383;BME280;8809;51.892;8.384;2022-11-20T06:55:04;100163.22;;;-4.28;100.00
17383;BME280;8809;51.892;8.384;2022-11-20T06:57:33;100164.41;;;-4.25;100.00
17383;BME280;8809;51.892;8.384;2022-11-20T06:59:59;100165.44;;;-4.23;100.00
17383;BME280;8809;51.892;8.384;2022-11-20T07:02:29;100161.38;;;-4.21;100.00
17383;BME280;8809;51.892;8.384;2022-11-20T07:04:57;100172.59;;;-4.19;100.00
17383;BME280;8809;51.892;8.384;2022-11-20T07:07:24;100172.75;;;-4.17;100.00
17383;BME280;8809;51.892;8.384;2022-11-20T07:09:51;100174.56;;;-4.16;100.00
17383;BME280;8809;51.892;8.384;2022-11-20T07:12:18;100185.78;;;-4.14;100.00
17383;BME280;8809;51.892;8.384;2022-11-20T07:14:46;100183.34;;;-4.13;100.00
17383;BME280;8809;51.892;8.384;2022-11-20T07:17:13;100195.31;;;-4.12;100.00
17383;BME280;8809;51.892;8.384;2022-11-20T07:19:40;100193.06;;;-4.08;100.00
17383;BME280;8809;51.892;8.384;2022-11-20T07:22:08;100180.47;;;-4.07;100.00
17383;BME280;8809;51.892;8.384;2022-11-20T07:24:35;100190.81;;;-4.05;100.00
17383;BME280;8809;51.892;8.384;2022-11-20T07:27:02;100193.63;;;-4.02;100.00
17383;BME280;8809;51.892;8.384;2022-11-20T07:29:29;100194.06;;;-3.98;100.00
17383;BME280;8809;51.892;8.384;2022-11-20T07:31:57;100201.09;;;-3.95;100.00
17383;BME280;8809;51.892;8.384;2022-11-20T07:34:25;100192.06;;;-3.92;100.00
17383;BME280;8809;51.892;8.384;2022-11-20T07:36:57;100194.88;;;-3.89;100.00
17383;BME280;8809;51.892;8.384;2022-11-20T07:39:30;100200.38;;;-3.84;100.00
17383;BME280;8809;51.892;8.384;2022-11-20T07:41:57;100195.44;;;-3.83;100.00
17383;BME280;8809;51.892;8.384;2022-11-20T07:44:24;100199.16;;;-3.79;100.00
17383;BME280;8809;51.892;8.384;2022-11-20T07:46:51;100202.13;;;-3.75;100.00
17383;BME280;8809;51.892;8.384;2022-11-20T07:49:19;100197.31;;;-3.71;100.00
17383;BME280;8809;51.892;8.384;2022-11-20T07:51:46;100192.50;;;-3.68;100.00
17383;BME280;8809;51.892;8.384;2022-11-20T07:54:13;100191.09;;;-3.65;100.00
17383;BME280;8809;51.892;8.384;2022-11-20T07:56:40;100190.34;;;-3.64;100.00
17383;BME280;8809;51.892;8.384;2022-11-20T07:59:07;100189.13;;;-3.59;100.00
17383;BME280;8809;51.892;8.384;2022-11-20T08:01:39;100190.03;;;-3.58;100.00
17383;BME280;8809;51.892;8.384;2022-11-20T08:04:11;100192.72;;;-3.57;100.00
17383;BME280;8809;51.892;8.384;2022-11-20T08:06:40;100198.06;;;-3.54;100.00
17383;BME280;8809;51.892;8.384;2022-11-20T08:09:07;100200.91;;;-3.51;100.00
17383;BME280;8809;51.892;8.384;2022-11-20T08:11:35;100197.72;;;-3.48;100.00
17383;BME280;8809;51.892;8.384;2022-11-20T08:14:19;100191.97;;;-3.46;100.00
17383;BME280;8809;51.892;8.384;2022-11-20T08:16:47;100188.69;;;-3.45;100.00
17383;BME280;8809;51.892;8.384;2022-11-20T08:19:15;100185.38;;;-3.44;100.00
17383;BME280;8809;51.892;8.384;2022-11-20T08:21:44;100180.56;;;-3.41;100.00
17383;BME280;8809;51.892;8.384;2022-11-20T08:24:12;100171.41;;;-3.39;100.00
17383;BME280;8809;51.892;8.384;2022-11-20T08:26:47;100183.50;;;-3.36;100.00
17383;BME280;8809;51.892;8.384;2022-11-20T08:29:30;100178.69;;;-3.33;100.00
17383;BME280;8809;51.892;8.384;2022-11-20T08:32:06;100172.97;;;-3.30;100.00
17383;BME280;8809;51.892;8.384;2022-11-20T08:34:40;100174.91;;;-3.28;100.00
17383;BME280;8809;51.892;8.384;2022-11-20T08:37:08;100182.66;;;-3.26;100.00
17383;BME280;8809;51.892;8.384;2022-11-20T08:39:35;100176.94;;;-3.24;100.00
17383;BME280;8809;51.892;8.384;2022-11-20T08:42:06;100187.28;;;-3.22;100.00
17383;BME280;8809;51.892;8.384;2022-11-20T08:44:32;100181.56;;;-3.20;100.00
17383;BME280;8809;51.892;8.384;2022-11-20T08:47:00;100189.47;;;-3.17;100.00
17383;BME280;8809;51.892;8.384;2022-11-20T08:49:27;100185.41;;;-3.15;100.00
17383;BME280;8809;51.892;8.384;2022-11-20T08:51:54;100193.19;;;-3.13;100.00
17383;BME280;8809;51.892;8.384;2022-11-20T08:54:22;100188.38;;;-3.10;100.00
17383;BME280;8809;51.892;8.384;2022-11-20T08:56:49;100191.06;;;-3.09;100.00
17383;BME280;8809;51.892;8.384;2022-11-20T08:59:16;100185.97;;;-3.09;100.00
17383;BME280;8809;51.892;8.384;2022-11-20T09:01:46;100193.72;;;-3.07;100.00
17383;BME280;8809;51.892;8.384;2022-11-20T09:04:15;100189.66;;;-3.05;100.00
17383;BME280;8809;51.892;8.384;2022-11-20T09:06:42;100194.91;;;-3.04;100.00
17383;BME280;8809;51.892;8.384;2022-11-20T09:09:09;100186.63;;;-3.01;100.00
17383;BME280;8809;51.892;8.384;2022-11-20T09:11:37;100182.66;;;-2.97;100.00
17383;BME280;8809;51.892;8.384;2022-11-20T09:14:04;100181.28;;;-2.94;100.00
17383;BME280;8809;51.892;8.384;2022-11-20T09:16:31;100173.16;;;-2.90;100.00
17383;BME280;8809;51.892;8.384;2022-11-20T09:18:58;100178.78;;;-2.84;100.00
17383;BME280;8809;51.892;8.384;2022-11-20T09:21:25;100175.09;;;-2.77;100.00
17383;BME280;8809;51.892;8.384;2022-11-20T09:23:52;100168.09;;;-2.70;100.00
17383;BME280;8809;51.892;8.384;2022-11-20T09:26:19;100161.25;;;-2.60;100.00
17383;BME280;8809;51.892;8.384;2022-11-20T09:28:47;100162.03;;;-2.51;100.00
17383;BME280;8809;51.892;8.384;2022-11-20T09:31:26;100162.94;;;-2.41;100.00
17383;BME280;8809;51.892;8.384;2022-11-20T09:34:12;100150.81;;;-2.33;100.00
17383;BME280;8809;51.892;8.384;2022-11-20T09:36:47;100162.69;;;-2.23;100.00
17383;BME280;8809;51.892;8.384;2022-11-20T09:39:46;100152.47;;;-2.13;100.00
17383;BME280;8809;51.892;8.384;2022-11-20T09:42:22;100150.56;;;-2.06;100.00
17383;BME280;8809;51.892;8.384;2022-11-20T09:45:12;100152.22;;;-1.96;100.00
17383;BME280;8809;51.892;8.384;2022-11-20T09:47:52;100150.56;;;-1.85;100.00
17383;BME280;8809;51.892;8.384;2022-11-20T09:50:30;100156.53;;;-1.75;100.00
17383;BME280;8809;51.892;8.384;2022-11-20T09:53:17;100157.31;;;-1.66;100.00
17383;BME280;8809;51.892;8.384;2022-11-20T09:56:15;100158.94;;;-1.56;100.00
17383;BME280;8809;51.892;8.384;2022-11-20T09:58:59;100144.34;;;-1.47;100.00
17383;BME280;8809;51.892;8.384;2022-11-20T10:01:32;100146.88;;;-1.37;100.00
17383;BME280;8809;51.892;8.384;2022-11-20T10:04:03;100136.34;;;-1.30;100.00
17383;BME280;8809;51.892;8.384;2022-11-20T10:06:32;100139.66;;;-1.21;100.00
17383;BME280;8809;51.892;8.384;2022-11-20T10:09:06;100139.75;;;-1.09;100.00
17383;BME280;8809;51.892;8.384;2022-11-20T10:11:46;100140.47;;;-1.00;100.00
17383;BME280;8809;51.892;8.384;2022-11-20T10:14:26;100131.84;;;-0.90;100.00
17383;BME280;8809;51.892;8.384;2022-11-20T10:17:03;100134.34;;;-0.80;100.00
17383;BME280;8809;51.892;8.384;2022-11-20T10:19:52;100134.28;;;-0.70;100.00
17383;BME280;8809;51.892;8.384;2022-11-20T10:22:34;100133.47;;;-0.59;100.00
17383;BME280;8809;51.892;8.384;2022-11-20T10:25:13;100140.28;;;-0.48;100.00
17383;BME280;8809;51.892;8.384;2022-11-20T10:28:20;100133.22;;;-0.40;100.00
17383;BME280;8809;51.892;8.384;2022-11-20T10:30:55;100118.66;;;-0.29;100.00
17383;BME280;8809;51.892;8.384;2022-11-20T10:33:27;100114.88;;;-0.23;100.00
17383;BME280;8809;51.892;8.384;2022-11-20T10:36:05;100110.31;;;-0.15;100.00
17383;BME280;8809;51.892;8.384;2022-11-20T10:38:38;100111.00;;;-0.06;100.00
17383;BME280;8809;51.892;8.384;2022-11-20T10:41:13;100104.91;;;0.04;100.00
17383;BME280;8809;51.892;8.384;2022-11-20T10:43:56;100103.00;;;0.13;100.00
17383;BME280;8809;51.892;8.384;2022-11-20T10:46:34;100103.69;;;0.22;100.00
17383;BME280;8809;51.892;8.384;2022-11-20T10:49:13;100106.81;;;0.29;100.00
17383;BME280;8809;51.892;8.384;2022-11-20T10:51:50;100098.81;;;0.36;100.00
17383;BME280;8809;51.892;8.384;2022-11-20T10:54:23;100093.34;;;0.44;100.00
17383;BME280;8809;51.892;8.384;2022-11-20T10:56:59;100091.22;;;0.50;100.00
17383;BME280;8809;51.892;8.384;2022-11-20T11:00:06;100097.78;;;0.58;100.00
17383;BME280;8809;51.892;8.384;2022-11-20T11:02:40;100097.47;;;0.65;100.00
17383;BME280;8809;51.892;8.384;2022-11-20T11:05:34;100093.66;;;0.71;100.00
17383;BME280;8809;51.892;8.384;2022-11-20T11:08:04;100081.16;;;0.76;100.00
17383;BME280;8809;51.892;8.384;2022-11-20T11:10:39;100076.34;;;0.81;100.00
17383;BME280;8809;51.892;8.384;2022-11-20T11:13:19;100074.41;;;0.90;100.00
17383;BME280;8809;51.892;8.384;2022-11-20T11:15:46;100078.09;;;0.93;100.00
17383;BME280;8809;51.892;8.384;2022-11-20T11:18:23;100066.47;;;0.98;100.00
17383;BME280;8809;51.892;8.384;2022-11-20T11:20:52;100063.47;;;1.04;100.00
17383;BME280;8809;51.892;8.384;2022-11-20T11:23:30;100066.56;;;1.11;100.00
17383;BME280;8809;51.892;8.384;2022-11-20T11:25:59;100061.94;;;1.19;100.00
17383;BME280;8809;51.892;8.384;2022-11-20T11:28:27;100058.34;;;1.29;100.00
17383;BME280;8809;51.892;8.384;2022-11-20T11:30:55;100055.97;;;1.32;100.00
17383;BME280;8809;51.892;8.384;2022-11-20T11:33:24;100054.41;;;1.34;100.00
17383;BME280;8809;51.892;8.384;2022-11-20T11:35:54;100057.88;;;1.34;100.00
17383;BME280;8809;51.892;8.384;2022-11-20T11:38:28;100053.53;;;1.33;100.00
17383;BME280;8809;51.892;8.384;2022-11-20T11:40:57;100040.09;;;1.37;100.00
17383;BME280;8809;51.892;8.384;2022-11-20T11:43:25;100039.19;;;1.37;100.00
17383;BME280;8809;51.892;8.384;2022-11-20T11:46:30;100030.13;;;1.42;100.00
17383;BME280;8809;51.892;8.384;2022-11-20T11:48:59;100038.19;;;1.60;100.00
17383;BME280;8809;51.892;8.384;2022-11-20T11:51:38;100025.00;;;1.55;100.00
17383;BME280;8809;51.892;8.384;2022-11-20T11:54:22;100036.00;;;1.53;100.00
17383;BME280;8809;51.892;8.384;2022-11-20T11:57:20;100032.66;;;1.54;100.00
17383;BME280;8809;51.892;8.384;2022-11-20T12:00:13;100027.50;;;1.54;100.00
17383;BME280;8809;51.892;8.384;2022-11-20T12:02:55;100039.47;;;1.53;100.00
17383;BME280;8809;51.892;8.384;2022-11-20T12:05:26;100030.75;;;1.51;100.00
17383;BME280;8809;51.892;8.384;2022-11-20T12:07:59;100028.97;;;1.50;100.00
17383;BME280;8809;51.892;8.384;2022-11-20T12:10:41;100023.94;;;1.52;100.00
17383;BME280;8809;51.892;8.384;2022-11-20T12:13:20;100025.00;;;1.55;100.00
17383;BME280;8809;51.892;8.384;2022-11-20T12:15:48;100019.31;;;1.59;100.00
17383;BME280;8809;51.892;8.384;2022-11-20T12:18:18;100018.03;;;1.66;100.00
17383;BME280;8809;51.892;8.384;2022-11-20T12:20:56;100012.22;;;1.68;100.00
17383;BME280;8809;51.892;8.384;2022-11-20T12:23:39;100010.63;;;1.70;100.00
17383;BME280;8809;51.892;8.384;2022-11-20T12:26:17;100007.56;;;1.76;100.00
17383;BME280;8809;51.892;8.384;2022-11-20T12:28:59;100009.69;;;1.81;100.00
17383;BME280;8809;51.892;8.384;2022-11-20T12:31:51;100011.06;;;1.90;100.00
17383;BME280;8809;51.892;8.384;2022-11-20T12:34:50;100009.09;;;1.99;100.00
17383;BME280;8809;51.892;8.384;2022-11-20T12:37:33;100011.78;;;2.00;100.00
17383;BME280;8809;51.892;8.384;2022-11-20T12:40:22;99998.81;;;1.99;100.00
17383;BME280;8809;51.892;8.384;2022-11-20T12:43:28;99997.53;;;1.92;100.00
17383;BME280;8809;51.892;8.384;2022-11-20T12:46:23;99996.31;;;1.87;100.00
17383;BME280;8809;51.892;8.384;2022-11-20T12:49:18;99998.78;;;1.85;100.00
17383;BME280;8809;51.892;8.384;2022-11-20T12:52:01;99995.41;;;1.86;100.00
17383;BME280;8809;51.892;8.384;2022-11-20T12:55:15;99990.78;;;1.94;100.00
17383;BME280;8809;51.892;8.384;2022-11-20T12:57:47;99978.44;;;2.02;100.00
17383;BME280;8809;51.892;8.384;2022-11-20T13:00:18;99978.31;;;2.13;100.00
17383;BME280;8809;51.892;8.384;2022-11-20T13:06:04;99974.75;;;2.38;100.00
17383;BME280;8809;51.892;8.384;2022-11-20T13:08:34;99970.88;;;2.44;100.00
17383;BME280;8809;51.892;8.384;2022-11-20T13:11:10;99970.56;;;2.53;100.00
17383;BME280;8809;51.892;8.384;2022-11-20T13:13:45;99966.88;;;2.63;100.00
17383;BME280;8809;51.892;8.384;2022-11-20T13:16:18;99965.75;;;2.72;100.00
17383;BME280;8809;51.892;8.384;2022-11-20T13:18:46;99962.06;;;2.82;100.00
17383;BME280;8809;51.892;8.384;2022-11-20T13:21:18;99962.72;;;2.92;100.00
17383;BME280;8809;51.892;8.384;2022-11-20T13:23:47;99959.25;;;2.92;100.00
17383;BME280;8809;51.892;8.384;2022-11-20T13:26:19;99959.25;;;2.92;100.00